Latest Coastal Weather Observations for Smithton

IDT60701

Issued at 2:03 pm EST Wednesday 24 May 2017 (issued every 10 minutes, with the page automatically refreshed every 10 minutes)

About coastal observations | Map of coastal stations | Coastal observations for TAS | Marine services | Other Formats
Station Details ID: 091292 Name: SMITHTON AERODROME Lat: -40.83 Lon: 145.08 Height: 7.5 m
Data from the previous 72 hours. | See also: Recent months at Smithton
Date/Time
EST
Temp
°C
Wind Pressure Rain since
9am
mm
Weather Cloud Vis
km
Sea
Height
m
Swell
Dir  Spd
kts
Gust
kts
hPa Trend Height
m
Period
s
Dir
24/02:00pm 14.5 WSW 16 21 1011.2 - 0.0 - - - - - - -
24/01:30pm 14.6 WSW 16 22 1011.1 - 0.0 - - - - - - -
24/01:00pm 13.9 W 17 26 1011.0 - 0.0 - - - - - - -
24/12:30pm 13.2 WSW 17 22 1011.1 - 0.0 - - - - - - -
24/12:00pm 14.4 W 17 24 1011.1 - 0.0 - - - - - - -
24/11:30am 14.1 W 15 19 1011.1 - 0.0 - - - - - - -
24/11:00am 14.0 W 13 19 1011.2 - 0.0 - - - - - - -
24/10:30am 13.7 W 11 15 1011.1 - 0.0 - - - - - - -
24/10:00am 12.7 WSW 12 16 1010.8 - 0.0 - - - - - - -
24/09:30am 12.4 WSW 9 11 1010.6 - 0.0 - - - - - - -
24/09:00am 11.3 WSW 8 10 1010.4 - 12.2 - - - - - - -
24/08:30am 10.7 WSW 9 11 1010.0 - 12.2 - - - - - - -
24/08:00am 10.3 WSW 9 12 1009.5 - 12.2 - - - - - - -
24/07:30am 11.0 W 8 11 1009.1 - 12.2 - - - - - - -
24/07:00am 10.7 WSW 8 10 1008.7 - 12.0 - - - - - - -
24/06:30am 9.9 WSW 5 7 1008.4 - 11.8 - - - - - - -
24/06:00am 10.9 WSW 7 8 1007.9 - 11.8 - - - - - - -
24/05:30am 11.8 W 12 18 1007.7 - 11.8 - - - - - - -
24/05:17am 11.9 W 15 23 1007.8 - 11.4 - - - - - - -
24/05:00am 12.0 NW 8 11 1007.4 - 10.4 - - - - - - -
24/04:30am 11.7 NW 4 5 1007.5 - 10.4 - - - - - - -
24/04:00am 11.5 NNW 5 6 1007.6 - 10.2 - - - - - - -
24/03:30am 11.5 NW 8 12 1007.8 - 10.2 - - - - - - -
24/03:00am 11.5 NW 11 15 1008.0 - 10.2 - - - - - - -
24/02:30am 12.5 N 5 6 1008.0 - 5.8 - - - - - - -
24/02:00am 12.5 N 6 9 1008.2 - 5.0 - - - - - - -
24/01:30am 12.2 N 5 8 1008.7 - 4.8 - - - - - - -
24/01:00am 11.8 N 4 5 1009.2 - 4.8 - - - - - - -
24/12:30am 11.4 NNW 6 8 1009.6 - 4.8 - - - - - - -
24/12:00am 11.5 NNW 11 14 1010.0 - 4.6 - - - - - - -
 
Date/Time
EST
Temp
°C
Wind Pressure Rain since
9am
mm
Weather Cloud Vis
km
Sea
Height
m
Swell
Dir  Spd
kts
Gust
kts
hPa Trend Height
m
Period
s
Dir
23/11:30pm 13.8 N 9 13 1010.2 - 2.0 - - - - - - -
23/11:00pm 13.4 N 8 10 1010.5 - 1.8 - - - - - - -
23/10:30pm 12.3 N 6 7 1010.9 - 1.8 - - - - - - -
23/10:00pm 12.2 N 5 7 1011.4 - 1.8 - - - - - - -
23/09:30pm 11.9 N 4 5 1011.6 - 1.8 - - - - - - -
23/09:00pm 11.4 N 3 4 1011.8 - 1.8 - - - - - - -
23/08:30pm 12.1 N 6 7 1012.0 - 1.8 - - - - - - -
23/08:00pm 11.2 N 4 5 1012.1 - 1.8 - - - - - - -
23/07:30pm 11.8 N 4 5 1012.2 - 1.8 - - - - - - -
23/07:00pm 11.0 N 3 4 1012.1 - 1.8 - - - - - - -
23/06:30pm 12.1 NNW 4 5 1012.3 - 1.8 - - - - - - -
23/06:00pm 12.8 NNW 5 6 1012.2 - 1.8 - - - - - - -
23/05:30pm 13.7 N 6 7 1012.1 - 1.8 - - - - - - -
23/05:00pm 14.1 NNW 7 9 1012.1 - 1.8 - - - - - - -
23/04:30pm 14.8 NNW 6 8 1012.0 - 1.8 - - - - - - -
23/04:00pm 15.8 NW 8 13 1012.2 - 1.8 - - - - - - -
23/03:30pm 15.6 NW 5 8 1011.9 - 1.8 - - - - - - -
23/03:00pm 15.4 NW 8 10 1012.1 - 1.8 - - - - - - -
23/02:30pm 16.1 NNW 10 14 1012.0 - 1.8 - - - - - - -
23/02:00pm 16.3 NNW 10 13 1012.4 - 1.8 - - - - - - -
23/01:30pm 16.0 NW 10 14 1012.8 - 1.8 - - - - - - -
23/01:00pm 15.0 NW 10 15 1013.3 - 1.8 - - - - - - -
23/12:30pm 15.2 NNW 11 14 1013.5 - 1.8 - - - - - - -
23/12:00pm 14.6 NNW 10 13 1014.1 - 1.8 - - - - - - -
23/11:30am 13.9 N 10 13 1014.5 - 1.4 - - - - - - -
23/11:00am 13.9 N 8 11 1014.9 - 0.8 - - - - - - -
23/10:30am 14.2 N 7 9 1014.7 - 0.4 - - - - - - -
23/10:00am 14.1 NNW 6 8 1014.8 - 0.4 - - - - - - -
23/09:30am 13.9 NNW 9 12 1015.1 - 0.4 - - - - - - -
23/09:00am 14.0 NNW 8 11 1015.4 - 1.8 - - - - - - -
23/08:30am 13.6 NNW 8 11 1015.3 - 1.8 - - - - - - -
23/08:00am 14.1 NW 9 13 1015.2 - 1.2 - - - - - - -
23/07:30am 13.7 NW 4 5 1014.9 - 0.8 - - - - - - -
23/07:00am 13.5 CALM 0 0 1014.7 - 0.8 - - - - - - -
23/06:30am 14.1 NW 4 4 1014.8 - 0.4 - - - - - - -
23/06:00am 14.5 NW 6 9 1014.7 - 0.4 - - - - - - -
23/05:30am 14.9 N 9 13 1014.5 - 0.4 - - - - - - -
23/05:00am 14.8 N 9 12 1014.7 - 0.4 - - - - - - -
23/04:30am 15.1 N 9 13 1014.6 - 0.4 - - - - - - -
23/04:00am 15.3 N 9 13 1015.0 - 0.2 - - - - - - -
23/03:30am 15.2 N 11 15 1015.5 - 0.2 - - - - - - -
23/03:00am 15.5 N 8 11 1015.6 - 0.0 - - - - - - -
23/02:30am 15.5 N 9 13 1015.3 - 0.0 - - - - - - -
23/02:00am 15.7 N 8 13 1015.5 - 0.0 - - - - - - -
23/01:30am 15.4 NNE 5 9 1015.7 - 0.0 - - - - - - -
23/01:00am 15.2 ENE 7 9 1015.9 - 0.0 - - - - - - -
23/12:30am 14.9 NE 7 9 1016.4 - 0.0 - - - - - - -
23/12:00am 15.2 ENE 8 10 1016.7 - 0.0 - - - - - - -
 
Date/Time
EST
Temp
°C
Wind Pressure Rain since
9am
mm
Weather Cloud Vis
km
Sea
Height
m
Swell
Dir  Spd
kts
Gust
kts
hPa Trend Height
m
Period
s
Dir
22/11:30pm 15.1 ENE 8 11 1016.5 - 0.0 - - - - - - -
22/11:00pm 14.6 E 7 9 1016.9 - 0.0 - - - - - - -
22/10:30pm 14.6 E 7 10 1017.3 - 0.0 - - - - - - -
22/10:00pm 14.8 E 7 8 1017.4 - 0.0 - - - - - - -
22/09:30pm 15.2 E 8 9 1017.3 - 0.0 - - - - - - -
22/09:00pm 15.4 E 9 12 1017.2 - 0.0 - - - - - - -
22/08:30pm 15.2 ENE 10 14 1017.0 - 0.0 - - - - - - -
22/08:00pm 14.9 ENE 9 12 1017.1 - 0.0 - - - - - - -
22/07:30pm 15.2 ENE 10 13 1017.1 - 0.0 - - - - - - -
22/07:00pm 15.4 NE 11 15 1017.3 - 0.0 - - - - - - -
22/06:30pm 15.0 ENE 9 12 1017.2 - 0.0 - - - - - - -
22/06:00pm 15.0 ENE 10 13 1017.0 - 0.0 - - - - - - -
22/05:30pm 14.9 E 9 13 1017.0 - 0.0 - - - - - - -
22/05:00pm 14.8 E 8 9 1017.0 - 0.0 - - - - - - -
22/04:30pm 15.4 ENE 7 9 1017.0 - 0.0 - - - - - - -
22/04:00pm 16.7 ENE 6 8 1017.2 - 0.0 - - - - - - -
22/03:30pm 16.5 NNE 6 8 1017.3 - 0.0 - - - - - - -
22/03:00pm 17.0 NNE 9 14 1017.3 - 0.0 - - - - - - -
22/02:30pm 17.2 NNE 9 13 1017.4 - 0.0 - - - - - - -
22/02:00pm 17.3 NNE 11 15 1017.5 - 0.0 - - - - - - -
22/01:30pm 17.4 NNE 10 13 1017.6 - 0.0 - - - - - - -
22/01:00pm 17.3 NNE 10 13 1018.2 - 0.0 - - - - - - -
22/12:30pm 17.6 NNE 9 13 1018.4 - 0.0 - - - - - - -
22/12:00pm 17.3 NE 9 13 1018.9 - 0.0 - - - - - - -
22/11:30am 17.0 NE 9 12 1019.4 - 0.0 - - - - - - -
22/11:00am 16.4 NE 8 10 1019.8 - 0.0 - - - - - - -
22/10:30am 16.4 NE 9 11 1020.0 - 0.0 - - - - - - -
22/10:00am 16.1 NE 7 9 1020.1 - 0.0 - - - - - - -
22/09:30am 15.7 ENE 7 8 1020.2 - 0.0 - - - - - - -
22/09:00am 14.6 ENE 7 9 1020.4 - 0.4 - - - - - - -
22/08:30am 10.0 CALM 0 3 1020.5 - 0.4 - - - - - - -
22/08:00am 9.2 CALM 0 0 1020.2 - 0.4 - - - - - - -
22/07:30am 9.6 CALM 0 0 1020.0 - 0.4 - - - - - - -
22/07:00am 9.4 CALM 0 0 1019.8 - 0.4 - - - - - - -
22/06:30am 9.0 CALM 0 0 1019.6 - 0.4 - - - - - - -
22/06:00am 9.6 CALM 0 0 1019.5 - 0.4 - - - - - - -
22/05:30am 9.3 W 3 5 1019.4 - 0.4 - - - - - - -
22/05:00am 9.1 W 4 5 1019.3 - 0.4 - - - - - - -
22/04:30am 9.7 CALM 0 0 1019.2 - 0.2 - - - - - - -
22/04:00am 10.1 CALM 0 1 1019.1 - 0.2 - - - - - - -
22/03:30am 9.9 W 3 4 1019.2 - 0.2 - - - - - - -
22/03:00am 9.7 W 3 4 1019.3 - 0.2 - - - - - - -
22/02:30am 9.1 W 3 4 1019.3 - 0.2 - - - - - - -
22/02:00am 9.5 W 3 3 1019.5 - 0.2 - - - - - - -
22/01:30am 9.0 W 4 4 1019.5 - 0.2 - - - - - - -
22/01:00am 8.7 W 4 4 1019.5 - 0.2 - - - - - - -
22/12:30am 8.5 W 3 4 1019.5 - 0.2 - - - - - - -
22/12:00am 9.0 CALM 0 0 1019.5 - 0.2 - - - - - - -
 
Date/Time
EST
Temp
°C
Wind Pressure Rain since
9am
mm
Weather Cloud Vis
km
Sea
Height
m
Swell
Dir  Spd
kts
Gust
kts
hPa Trend Height
m
Period
s
Dir
21/11:30pm 9.5 W 3 4 1019.5 - 0.2 - - - - - - -
21/11:00pm 9.7 W 3 4 1019.5 - 0.2 - - - - - - -
21/10:30pm 9.1 CALM 0 0 1019.6 - 0.2 - - - - - - -
21/10:00pm 9.5 W 3 4 1019.6 - 0.2 - - - - - - -
21/09:30pm 9.6 CALM 0 0 1019.7 - 0.2 - - - - - - -
21/09:00pm 10.1 NW 3 4 1019.5 - 0.2 - - - - - - -
21/08:30pm 10.6 CALM 0 0 1019.5 - 0.0 - - - - - - -
21/08:00pm 9.6 CALM 0 0 1019.2 - 0.0 - - - - - - -
21/07:30pm 10.7 NW 1 3 1019.0 - 0.0 - - - - - - -
21/07:00pm 11.1 CALM 0 0 1018.7 - 0.0 - - - - - - -
21/06:30pm 12.1 CALM 0 0 1018.4 - 0.0 - - - - - - -
21/06:00pm 13.0 CALM 0 0 1018.1 - 0.0 - - - - - - -
21/05:30pm 12.9 W 2 4 1017.9 - 0.0 - - - - - - -
21/05:00pm 13.6 WNW 5 6 1017.6 - 0.0 - - - - - - -
21/04:30pm 14.8 W 6 7 1017.5 - 0.0 - - - - - - -
21/04:00pm 15.5 W 7 10 1017.3 - 0.0 - - - - - - -
21/03:30pm 16.6 WNW 9 11 1017.1 - 0.0 - - - - - - -
21/03:00pm 16.6 W 9 11 1017.0 - 0.0 - - - - - - -
21/02:30pm 16.6 W 8 11 1016.9 - 0.0 - - - - - - -

Other Formats:

Comma delimited format used in spreadsheet applications
http://www.bom.gov.au/fwo/IDT60701/IDT60701.94953.axf

JavaScript Object Notation format (JSON) in row-major order
http://www.bom.gov.au/fwo/IDT60701/IDT60701.94953.json